createdAt,value
2022-08-22T00:00:50.939Z,16.47
2022-08-22T00:01:51.063Z,16.43
2022-08-22T00:02:44.477Z,18.47
2022-08-22T00:02:54.355Z,19.41
2022-08-22T00:02:54.874Z,18.33
2022-08-22T00:02:57.281Z,20.07
2022-08-22T00:02:58.380Z,18.90
2022-08-22T00:03:09.034Z,16.89
2022-08-22T00:03:11.562Z,17.19
2022-08-22T00:03:15.001Z,16.42
2022-08-22T00:03:51.909Z,16.41
2022-08-22T00:04:50.890Z,16.38
2022-08-22T00:05:50.881Z,16.38
2022-08-22T00:06:50.860Z,16.36
2022-08-22T00:07:50.869Z,16.33
2022-08-22T00:08:50.840Z,16.33
2022-08-22T00:09:50.829Z,16.31
2022-08-22T00:10:50.810Z,16.29
2022-08-22T00:11:50.809Z,16.28
2022-08-22T00:12:50.798Z,16.23
2022-08-22T00:14:01.096Z,16.23
2022-08-22T00:14:51.757Z,16.23
2022-08-22T00:15:50.749Z,16.20
2022-08-22T00:16:50.729Z,16.17
2022-08-22T00:17:50.738Z,16.16
2022-08-22T00:18:50.718Z,16.13
2022-08-22T00:19:50.700Z,16.12
2022-08-22T00:20:50.678Z,16.10
2022-08-22T00:21:50.678Z,16.09
2022-08-22T00:22:50.666Z,16.08
2022-08-22T00:23:50.645Z,16.05
2022-08-22T00:24:50.626Z,16.02
2022-08-22T00:25:50.615Z,16.00
2022-08-22T00:26:50.599Z,16.01
2022-08-22T00:27:50.626Z,15.97
2022-08-22T00:28:50.577Z,15.97
2022-08-22T00:29:50.568Z,15.95
2022-08-22T00:30:50.537Z,15.92
2022-08-22T00:31:50.538Z,15.92
2022-08-22T00:32:50.529Z,15.88
2022-08-22T00:33:50.508Z,15.88
2022-08-22T00:34:50.490Z,15.90
2022-08-22T00:35:50.485Z,15.86
2022-08-22T00:36:50.467Z,15.86
2022-08-22T00:37:50.467Z,15.84
2022-08-22T00:38:50.437Z,15.83
2022-08-22T00:39:50.464Z,15.82
2022-08-22T00:40:50.415Z,15.80
2022-08-22T00:41:50.405Z,15.77
2022-08-22T00:42:50.398Z,15.77
2022-08-22T00:43:50.385Z,15.76
2022-08-22T00:44:50.357Z,15.75
2022-08-22T00:45:50.347Z,15.72
2022-08-22T00:46:50.358Z,15.72
2022-08-22T00:47:50.337Z,15.70
2022-08-22T00:48:50.297Z,15.68
2022-08-22T00:49:50.305Z,15.67
2022-08-22T00:50:50.276Z,15.67
2022-08-22T00:51:50.275Z,15.65
2022-08-22T00:52:50.278Z,15.64
2022-08-22T00:53:50.505Z,15.62
2022-08-22T00:54:50.234Z,15.61
2022-08-22T00:55:50.216Z,15.61
2022-08-22T00:56:50.196Z,15.59
2022-08-22T00:57:50.212Z,15.58
2022-08-22T00:58:50.175Z,15.57
2022-08-22T00:59:50.176Z,15.54
2022-08-22T01:00:50.195Z,15.54
2022-08-22T01:01:50.143Z,15.52
2022-08-22T01:02:52.558Z,15.51
2022-08-22T01:03:50.115Z,15.49
2022-08-22T01:04:50.106Z,15.47
2022-08-22T01:05:50.086Z,15.46
2022-08-22T01:06:50.065Z,15.43
2022-08-22T01:07:50.069Z,15.42
2022-08-22T01:08:50.037Z,15.40
2022-08-22T01:09:50.045Z,15.37
2022-08-22T01:10:50.014Z,15.37
2022-08-22T01:11:50.005Z,15.36
2022-08-22T01:12:50.005Z,15.35
2022-08-22T01:13:49.992Z,15.31
2022-08-22T01:14:49.966Z,15.31
2022-08-22T01:15:49.954Z,15.29
2022-08-22T01:16:49.935Z,15.28
2022-08-22T01:17:49.944Z,15.27
2022-08-22T01:18:49.918Z,15.25
2022-08-22T01:19:49.904Z,15.24
2022-08-22T01:20:49.888Z,15.22
2022-08-22T01:21:49.876Z,15.22
2022-08-22T01:22:49.865Z,15.19
2022-08-22T01:23:49.846Z,15.17
2022-08-22T01:24:49.834Z,15.17
2022-08-22T01:25:49.823Z,15.15
2022-08-22T01:26:49.803Z,15.11
2022-08-22T01:27:49.814Z,15.10
2022-08-22T01:28:49.774Z,15.11
2022-08-22T01:29:49.773Z,15.09
2022-08-22T01:30:49.744Z,15.09
2022-08-22T01:31:49.745Z,15.07
2022-08-22T01:32:49.724Z,15.06
2022-08-22T01:33:50.733Z,15.04
2022-08-22T01:34:49.702Z,15.03
2022-08-22T01:35:49.683Z,15.03
2022-08-22T01:36:49.674Z,15.02
2022-08-22T01:37:49.665Z,14.99
2022-08-22T01:38:49.659Z,15.00
2022-08-22T01:39:49.686Z,14.97
2022-08-22T01:40:53.738Z,14.99
2022-08-22T01:41:49.617Z,14.96
2022-08-22T01:42:49.592Z,14.94
2022-08-22T01:44:00.179Z,14.92
2022-08-22T01:44:50.573Z,14.91
2022-08-22T01:45:49.553Z,14.89
2022-08-22T01:46:49.544Z,14.86
2022-08-22T01:47:49.548Z,14.84
2022-08-22T01:48:49.523Z,14.84
2022-08-22T01:49:49.501Z,14.82
2022-08-22T01:50:49.492Z,14.79
2022-08-22T01:51:49.475Z,14.79
2022-08-22T01:52:49.463Z,14.79
2022-08-22T01:53:49.462Z,14.77
2022-08-22T01:54:49.442Z,14.77
2022-08-22T01:55:49.422Z,14.73
2022-08-22T01:56:49.411Z,14.73
2022-08-22T01:57:49.392Z,14.72
2022-08-22T01:58:49.402Z,14.69
2022-08-22T01:59:49.381Z,14.69
2022-08-22T02:00:49.388Z,14.69
2022-08-22T02:01:49.339Z,14.68
2022-08-22T02:02:49.331Z,14.65
2022-08-22T02:03:49.330Z,14.65
2022-08-22T02:04:49.302Z,14.65
2022-08-22T02:05:49.299Z,14.63
2022-08-22T02:06:49.285Z,14.60
2022-08-22T02:07:49.272Z,14.60
2022-08-22T02:08:49.271Z,14.59
2022-08-22T02:09:49.255Z,14.59
2022-08-22T02:10:49.233Z,14.59
2022-08-22T02:11:49.220Z,14.55
2022-08-22T02:12:49.219Z,14.55
2022-08-22T02:13:49.212Z,14.53
2022-08-22T02:14:49.172Z,14.53
2022-08-22T02:15:49.160Z,14.50
2022-08-22T02:16:49.160Z,14.48
2022-08-22T02:17:49.138Z,14.47
2022-08-22T02:18:49.140Z,14.47
2022-08-22T02:19:49.110Z,14.45
2022-08-22T02:20:49.110Z,14.44
2022-08-22T02:21:49.070Z,14.43
2022-08-22T02:22:49.069Z,14.43
2022-08-22T02:23:49.067Z,14.40
2022-08-22T02:24:49.039Z,14.37
2022-08-22T02:25:49.024Z,14.36
2022-08-22T02:26:49.019Z,14.36
2022-08-22T02:27:48.991Z,14.35
2022-08-22T02:28:56.547Z,14.33
2022-08-22T02:29:49.979Z,14.32
2022-08-22T02:30:48.959Z,14.30
2022-08-22T02:31:48.939Z,14.29
2022-08-22T02:32:48.936Z,14.29
2022-08-22T02:33:48.929Z,14.26
2022-08-22T02:34:50.211Z,14.25
2022-08-22T02:35:48.889Z,14.25
2022-08-22T02:36:48.878Z,14.23
2022-08-22T02:37:48.866Z,14.22
2022-08-22T02:38:48.867Z,14.20
2022-08-22T02:39:48.882Z,14.18
2022-08-22T02:40:48.828Z,14.17
2022-08-22T02:41:48.855Z,14.14
2022-08-22T02:42:48.813Z,14.15
2022-08-22T02:43:49.549Z,14.14
2022-08-22T02:44:48.778Z,14.12
2022-08-22T02:45:48.767Z,14.10
2022-08-22T02:46:48.768Z,14.10
2022-08-22T02:47:48.738Z,14.08
2022-08-22T02:48:48.748Z,14.07
2022-08-22T02:49:48.734Z,14.07
2022-08-22T02:50:48.697Z,14.04
2022-08-22T02:51:48.678Z,14.04
2022-08-22T02:52:48.677Z,14.03
2022-08-22T02:53:48.668Z,14.00
2022-08-22T02:54:48.648Z,13.99
2022-08-22T02:55:48.637Z,13.99
2022-08-22T02:56:48.617Z,13.97
2022-08-22T02:57:48.627Z,13.96
2022-08-22T02:58:48.602Z,13.95
2022-08-22T02:59:48.569Z,13.95
2022-08-22T03:00:48.625Z,13.93
2022-08-22T03:01:48.572Z,13.89
2022-08-22T03:02:48.547Z,13.89
2022-08-22T03:03:48.538Z,13.87
2022-08-22T03:04:48.518Z,13.87
2022-08-22T03:05:48.506Z,13.85
2022-08-22T03:06:48.493Z,13.83
2022-08-22T03:07:48.465Z,13.81
2022-08-22T03:08:50.798Z,13.79
2022-08-22T03:09:48.446Z,13.78
2022-08-22T03:10:48.455Z,13.78
2022-08-22T03:11:48.417Z,13.77
2022-08-22T03:12:48.406Z,13.75
2022-08-22T03:13:48.407Z,13.74
2022-08-22T03:14:48.385Z,13.74
2022-08-22T03:15:49.231Z,13.72
2022-08-22T03:16:48.345Z,13.71
2022-08-22T03:17:48.348Z,13.68
2022-08-22T03:18:48.339Z,13.65
2022-08-22T03:19:48.304Z,13.65
2022-08-22T03:20:48.296Z,13.63
2022-08-22T03:21:48.274Z,13.62
2022-08-22T03:22:48.264Z,13.62
2022-08-22T03:23:48.254Z,13.59
2022-08-22T03:24:48.253Z,13.57
2022-08-22T03:25:48.225Z,13.57
2022-08-22T03:26:48.221Z,13.56
2022-08-22T03:27:49.994Z,13.56
2022-08-22T03:28:59.471Z,13.54
2022-08-22T03:29:49.164Z,13.53
2022-08-22T03:30:48.165Z,13.53
2022-08-22T03:31:48.153Z,13.49
2022-08-22T03:32:48.135Z,13.52
2022-08-22T03:33:48.123Z,13.49
2022-08-22T03:34:48.103Z,13.47
2022-08-22T03:35:48.083Z,13.47
2022-08-22T03:36:48.074Z,13.46
2022-08-22T03:37:48.053Z,13.42
2022-08-22T03:38:48.074Z,13.44
2022-08-22T03:39:48.051Z,13.41
2022-08-22T03:40:48.043Z,13.41
2022-08-22T03:41:48.012Z,13.39
2022-08-22T03:42:47.992Z,13.38
2022-08-22T03:43:48.003Z,13.38
2022-08-22T03:44:47.973Z,13.37
2022-08-22T03:45:47.943Z,13.35
2022-08-22T03:46:47.941Z,13.35
2022-08-22T03:47:47.932Z,13.33
2022-08-22T03:48:47.934Z,13.28
2022-08-22T03:49:47.903Z,13.28
2022-08-22T03:50:47.890Z,13.27
2022-08-22T03:51:47.862Z,13.25
2022-08-22T03:52:47.884Z,13.23
2022-08-22T03:53:47.882Z,13.23
2022-08-22T03:54:47.833Z,13.20
2022-08-22T03:55:47.812Z,13.20
2022-08-22T03:56:47.801Z,13.20
2022-08-22T03:57:48.781Z,13.19
2022-08-22T03:58:47.791Z,13.16
2022-08-22T03:59:47.794Z,13.16
2022-08-22T04:00:47.839Z,13.16
2022-08-22T04:01:47.738Z,13.13
2022-08-22T04:02:47.721Z,13.13
2022-08-22T04:03:47.721Z,13.12
2022-08-22T04:04:47.700Z,13.11
2022-08-22T04:05:47.692Z,13.08
2022-08-22T04:06:48.460Z,13.11
2022-08-22T04:07:47.650Z,13.08
2022-08-22T04:08:47.653Z,13.05
2022-08-22T04:09:47.632Z,13.05
2022-08-22T04:10:47.613Z,13.05
2022-08-22T04:11:47.610Z,13.03
2022-08-22T04:12:47.603Z,13.01
2022-08-22T04:13:47.587Z,13.00
2022-08-22T04:14:47.573Z,13.00
2022-08-22T04:15:47.549Z,13.00
2022-08-22T04:16:47.548Z,12.97
2022-08-22T04:17:47.510Z,12.97
2022-08-22T04:18:47.519Z,12.97
2022-08-22T04:19:47.489Z,12.94
2022-08-22T04:20:47.479Z,12.94
2022-08-22T04:21:47.462Z,12.91
2022-08-22T04:22:47.456Z,12.91
2022-08-22T04:23:47.449Z,12.90
2022-08-22T04:24:52.020Z,12.91
2022-08-22T04:25:48.408Z,12.87
2022-08-22T04:26:47.398Z,12.87
2022-08-22T04:27:47.378Z,12.86
2022-08-22T04:28:47.388Z,12.86
2022-08-22T04:29:47.348Z,12.83
2022-08-22T04:30:47.338Z,12.85
2022-08-22T04:31:47.348Z,12.83
2022-08-22T04:32:47.328Z,12.83
2022-08-22T04:33:47.298Z,12.80
2022-08-22T04:34:47.288Z,12.82
2022-08-22T04:35:47.268Z,12.80
2022-08-22T04:36:47.265Z,12.79
2022-08-22T04:37:47.257Z,12.79
2022-08-22T04:38:47.237Z,12.78
2022-08-22T04:39:47.262Z,12.78
2022-08-22T04:40:47.217Z,12.78
2022-08-22T04:41:47.187Z,12.76
2022-08-22T04:42:47.196Z,12.75
2022-08-22T04:43:47.167Z,12.76
2022-08-22T04:44:47.157Z,12.75
2022-08-22T04:45:47.138Z,12.76
2022-08-22T04:46:47.136Z,12.75
2022-08-22T04:47:47.205Z,12.73
2022-08-22T04:48:48.104Z,12.73
2022-08-22T04:49:47.090Z,12.72
2022-08-22T04:50:47.073Z,12.73
2022-08-22T04:51:47.056Z,12.70
2022-08-22T04:52:47.062Z,12.72
2022-08-22T04:53:47.027Z,12.72
2022-08-22T04:54:47.028Z,12.73
2022-08-22T04:55:47.005Z,12.72
2022-08-22T04:56:46.995Z,12.72
2022-08-22T04:57:46.986Z,12.72
2022-08-22T04:58:46.995Z,12.72
2022-08-22T04:59:46.955Z,12.72
2022-08-22T05:00:46.935Z,12.72
2022-08-22T05:01:47.054Z,12.72
2022-08-22T05:02:48.316Z,12.70
2022-08-22T05:03:46.905Z,12.68
2022-08-22T05:04:46.883Z,12.68
2022-08-22T05:05:46.865Z,12.68
2022-08-22T05:06:46.858Z,12.68
2022-08-22T05:07:46.854Z,12.68
2022-08-22T05:08:48.409Z,12.67
2022-08-22T05:09:47.822Z,12.67
2022-08-22T05:10:46.804Z,12.68
2022-08-22T05:11:46.793Z,12.70
2022-08-22T05:12:46.786Z,12.67
2022-08-22T05:13:46.763Z,12.68
2022-08-22T05:14:46.744Z,12.72
2022-08-22T05:15:46.755Z,12.70
2022-08-22T05:16:46.725Z,12.70
2022-08-22T05:17:46.723Z,12.72
2022-08-22T05:18:46.714Z,12.75
2022-08-22T05:19:46.684Z,12.75
2022-08-22T05:20:46.673Z,12.75
2022-08-22T05:21:46.654Z,12.75
2022-08-22T05:22:46.663Z,12.78
2022-08-22T05:23:46.623Z,12.79
2022-08-22T05:24:46.620Z,12.82
2022-08-22T05:25:46.602Z,12.83
2022-08-22T05:26:46.593Z,12.90
2022-08-22T05:27:46.590Z,12.90
2022-08-22T05:28:50.170Z,12.90
2022-08-22T05:29:47.551Z,13.00
2022-08-22T05:30:46.544Z,13.05
2022-08-22T05:31:46.533Z,13.11
2022-08-22T05:32:46.534Z,13.16
2022-08-22T05:33:46.513Z,13.20
2022-08-22T05:34:46.492Z,13.27
2022-08-22T05:35:50.158Z,13.33
2022-08-22T05:36:47.463Z,13.39
2022-08-22T05:37:46.472Z,13.44
2022-08-22T05:38:46.443Z,13.49
2022-08-22T05:39:46.437Z,13.57
2022-08-22T05:40:46.406Z,13.63
2022-08-22T05:41:46.405Z,13.70
2022-08-22T05:42:46.796Z,13.77
2022-08-22T05:43:46.362Z,13.81
2022-08-22T05:44:46.363Z,13.85
2022-08-22T05:45:46.339Z,13.90
2022-08-22T05:46:46.332Z,13.93
2022-08-22T05:47:46.323Z,13.99
2022-08-22T05:48:46.304Z,14.03
2022-08-22T05:49:46.291Z,14.07
2022-08-22T05:50:50.428Z,14.11
2022-08-22T05:51:46.261Z,14.15
2022-08-22T05:52:46.271Z,14.22
2022-08-22T05:53:46.251Z,14.26
2022-08-22T05:54:46.222Z,14.32
2022-08-22T05:55:46.210Z,14.36
2022-08-22T05:56:46.200Z,14.41
2022-08-22T05:57:46.203Z,14.47
2022-08-22T05:58:46.181Z,14.51
2022-08-22T05:59:46.162Z,14.59
2022-08-22T06:00:46.154Z,14.62
2022-08-22T06:01:46.190Z,14.69
2022-08-22T06:02:46.120Z,14.73
2022-08-22T06:03:46.100Z,14.82
2022-08-22T06:04:46.089Z,14.88
2022-08-22T06:05:46.082Z,14.94
2022-08-22T06:06:46.051Z,15.00
2022-08-22T06:07:46.071Z,15.06
2022-08-22T06:08:46.034Z,15.10
2022-08-22T06:09:46.021Z,15.19
2022-08-22T06:10:48.085Z,15.25
2022-08-22T06:11:50.128Z,15.31
2022-08-22T06:12:46.990Z,15.37
2022-08-22T06:13:47.240Z,15.43
2022-08-22T06:14:45.951Z,15.51
2022-08-22T06:15:45.953Z,15.58
2022-08-22T06:16:47.550Z,15.65
2022-08-22T06:17:45.912Z,15.72
2022-08-22T06:18:45.952Z,15.80
2022-08-22T06:19:45.891Z,15.86
2022-08-22T06:20:45.883Z,15.94
2022-08-22T06:21:45.877Z,16.02
2022-08-22T06:22:45.842Z,16.10
2022-08-22T06:23:45.852Z,16.17
2022-08-22T06:24:45.819Z,16.28
2022-08-22T06:25:45.808Z,16.32
2022-08-22T06:26:48.737Z,16.42
2022-08-22T06:27:45.778Z,16.50
2022-08-22T06:28:55.172Z,16.57
2022-08-22T06:30:07.751Z,16.66
2022-08-22T06:30:45.750Z,16.76
2022-08-22T06:31:45.731Z,16.86
2022-08-22T06:32:59.902Z,16.94
2022-08-22T06:33:46.710Z,17.02
2022-08-22T06:34:45.691Z,17.12
2022-08-22T06:35:45.676Z,17.23
2022-08-22T06:36:45.661Z,17.33
2022-08-22T06:37:45.660Z,17.44
2022-08-22T06:38:45.732Z,17.51
2022-08-22T06:39:45.663Z,17.63
2022-08-22T06:40:45.603Z,17.71
2022-08-22T06:41:45.591Z,17.80
2022-08-22T06:42:45.581Z,17.87
2022-08-22T06:43:45.581Z,17.98
2022-08-22T06:44:45.551Z,18.08
2022-08-22T06:45:45.546Z,18.20
2022-08-22T06:46:45.532Z,18.29
2022-08-22T06:47:49.354Z,18.40
2022-08-22T06:48:45.522Z,18.50
2022-08-22T06:49:45.481Z,18.60
2022-08-22T06:50:45.482Z,18.73
2022-08-22T06:51:45.451Z,18.86
2022-08-22T06:52:45.453Z,18.98
2022-08-22T06:53:47.706Z,19.12
2022-08-22T06:54:45.423Z,19.26
2022-08-22T06:55:45.410Z,19.36
2022-08-22T06:56:45.410Z,19.49
2022-08-22T06:57:45.381Z,19.62
2022-08-22T06:58:45.392Z,19.73
2022-08-22T06:59:45.351Z,19.88
2022-08-22T07:00:51.086Z,20.03
2022-08-22T07:01:46.451Z,20.16
2022-08-22T07:02:45.312Z,20.31
2022-08-22T07:03:45.323Z,20.44
2022-08-22T07:04:45.292Z,20.60
2022-08-22T07:05:45.277Z,20.74
2022-08-22T07:06:45.308Z,20.84
2022-08-22T07:07:45.252Z,20.96
2022-08-22T07:08:45.283Z,21.11
2022-08-22T07:09:45.212Z,21.21
2022-08-22T07:10:45.216Z,21.33
2022-08-22T07:11:45.194Z,21.46
2022-08-22T07:12:45.202Z,21.58
2022-08-22T07:13:45.205Z,21.69
2022-08-22T07:14:45.153Z,21.79
2022-08-22T07:15:45.133Z,21.92
2022-08-22T07:16:45.122Z,22.06
2022-08-22T07:17:45.112Z,22.18
2022-08-22T07:18:45.123Z,22.33
2022-08-22T07:19:45.096Z,22.47
2022-08-22T07:20:45.104Z,22.63
2022-08-22T07:21:45.072Z,22.78
2022-08-22T07:22:45.063Z,22.87
2022-08-22T07:23:45.183Z,22.98
2022-08-22T07:24:45.074Z,23.08
2022-08-22T07:25:45.016Z,23.21
2022-08-22T07:26:44.994Z,23.37
2022-08-22T07:27:44.983Z,23.48
2022-08-22T07:28:50.835Z,23.63
2022-08-22T07:29:45.954Z,23.77
2022-08-22T07:30:44.944Z,23.92
2022-08-22T07:31:44.923Z,24.01
2022-08-22T07:32:44.913Z,24.14
2022-08-22T07:33:45.043Z,24.21
2022-08-22T07:34:44.915Z,24.35
2022-08-22T07:35:53.396Z,24.45
2022-08-22T07:36:45.868Z,24.53
2022-08-22T07:37:44.851Z,24.58
2022-08-22T07:38:44.864Z,24.65
2022-08-22T07:39:44.892Z,24.78
2022-08-22T07:40:44.805Z,24.92
2022-08-22T07:41:44.796Z,25.04
2022-08-22T07:42:44.786Z,25.16
2022-08-22T07:43:44.908Z,25.31
2022-08-22T07:44:44.755Z,25.47
2022-08-22T07:45:44.735Z,25.60
2022-08-22T07:46:44.725Z,25.72
2022-08-22T07:47:49.190Z,25.84
2022-08-22T07:49:07.729Z,25.95
2022-08-22T07:49:49.653Z,26.05
2022-08-22T07:50:44.675Z,26.19
2022-08-22T07:51:44.663Z,26.29
2022-08-22T07:52:44.685Z,26.41
2022-08-22T07:53:44.713Z,26.53
2022-08-22T07:54:44.617Z,26.62
2022-08-22T07:55:49.602Z,26.60
2022-08-22T07:56:45.595Z,26.66
2022-08-22T07:57:44.585Z,26.70
2022-08-22T07:58:44.587Z,26.80
2022-08-22T07:59:44.555Z,26.90
2022-08-22T08:00:44.546Z,26.97
2022-08-22T08:01:44.557Z,27.08
2022-08-22T08:02:44.527Z,27.21
2022-08-22T08:03:44.516Z,27.33
2022-08-22T08:04:44.496Z,27.45
2022-08-22T08:05:44.472Z,27.55
2022-08-22T08:06:44.466Z,27.65
2022-08-22T08:07:44.455Z,27.78
2022-08-22T08:08:44.460Z,27.89
2022-08-22T08:09:44.417Z,28.01
2022-08-22T08:10:44.417Z,28.12
2022-08-22T08:11:44.397Z,28.25
2022-08-22T08:12:44.390Z,28.35
2022-08-22T08:13:45.376Z,28.45
2022-08-22T08:14:44.417Z,28.56
2022-08-22T08:15:44.337Z,28.64
2022-08-22T08:16:44.346Z,28.78
2022-08-22T08:17:44.436Z,28.89
2022-08-22T08:18:44.650Z,29.01
2022-08-22T08:19:44.308Z,29.10
2022-08-22T08:20:44.277Z,29.17
2022-08-22T08:21:44.273Z,29.24
2022-08-22T08:22:44.279Z,29.32
2022-08-22T08:23:44.259Z,29.36
2022-08-22T08:24:44.519Z,29.39
2022-08-22T08:25:44.208Z,29.47
2022-08-22T08:26:44.208Z,29.57
2022-08-22T08:27:44.179Z,29.71
2022-08-22T08:28:44.219Z,29.81
2022-08-22T08:29:44.212Z,29.90
2022-08-22T08:30:44.150Z,29.95
2022-08-22T08:31:44.913Z,29.98
2022-08-22T08:32:44.119Z,30.08
2022-08-22T08:33:44.119Z,30.18
2022-08-22T08:34:44.109Z,30.28
2022-08-22T08:36:02.756Z,30.34
2022-08-22T08:36:45.079Z,30.47
2022-08-22T08:37:44.059Z,30.57
2022-08-22T08:38:44.079Z,30.68
2022-08-22T08:39:44.058Z,30.75
2022-08-22T08:40:44.022Z,30.84
2022-08-22T08:41:43.999Z,30.94
2022-08-22T08:42:44.001Z,31.03
2022-08-22T08:43:44.000Z,31.15
2022-08-22T08:44:43.971Z,31.28
2022-08-22T08:45:43.953Z,31.40
2022-08-22T08:46:55.223Z,31.51
2022-08-22T08:47:44.934Z,31.61
2022-08-22T08:48:43.952Z,31.70
2022-08-22T08:49:43.900Z,31.81
2022-08-22T08:50:43.892Z,31.92
2022-08-22T08:51:43.871Z,32.00
2022-08-22T08:52:43.871Z,32.09
2022-08-22T08:53:43.872Z,32.15
2022-08-22T08:54:43.851Z,32.18
2022-08-22T08:55:43.822Z,32.21
2022-08-22T08:56:47.134Z,32.29
2022-08-22T08:58:44.813Z,32.52
2022-08-22T08:59:44.401Z,32.63
2022-08-22T09:00:43.762Z,32.71
2022-08-22T09:01:43.786Z,32.83
2022-08-22T09:02:43.751Z,32.90
2022-08-22T09:03:43.742Z,32.92
2022-08-22T09:04:43.732Z,32.93
2022-08-22T09:05:43.702Z,33.00
2022-08-22T09:06:43.690Z,33.07
2022-08-22T09:07:44.673Z,33.15
2022-08-22T09:08:43.692Z,33.24
2022-08-22T09:09:43.975Z,33.34
2022-08-22T09:10:43.642Z,33.43
2022-08-22T09:11:43.624Z,33.50
2022-08-22T09:12:59.744Z,33.57
2022-08-22T09:13:44.613Z,33.65
2022-08-22T09:14:44.331Z,33.73
2022-08-22T09:15:43.572Z,33.79
2022-08-22T09:17:44.542Z,33.92
2022-08-22T09:18:43.554Z,33.98
2022-08-22T09:19:43.515Z,34.02
2022-08-22T09:20:43.505Z,34.13
2022-08-22T09:21:43.506Z,34.23
2022-08-22T09:22:50.153Z,34.33
2022-08-22T09:23:44.484Z,34.39
2022-08-22T09:24:43.454Z,34.43
2022-08-22T09:25:43.466Z,34.48
2022-08-22T09:26:43.426Z,34.54
2022-08-22T09:27:43.416Z,34.58
2022-08-22T09:28:44.647Z,34.64
2022-08-22T09:29:55.249Z,34.74
2022-08-22T09:30:44.375Z,34.85
2022-08-22T09:31:47.594Z,34.89
2022-08-22T09:32:44.367Z,34.93
2022-08-22T09:33:43.357Z,34.99
2022-08-22T09:34:43.316Z,35.05
2022-08-22T09:35:43.306Z,35.08
2022-08-22T09:36:43.309Z,35.17
2022-08-22T09:37:43.276Z,35.24
2022-08-22T09:38:47.865Z,35.31
2022-08-22T09:39:44.268Z,35.42
2022-08-22T09:40:44.246Z,35.48
2022-08-22T09:41:43.226Z,35.58
2022-08-22T09:42:44.936Z,35.66
2022-08-22T09:43:45.709Z,35.70
2022-08-22T09:44:44.197Z,35.70
2022-08-22T09:45:43.198Z,35.71
2022-08-22T09:46:43.165Z,35.78
2022-08-22T09:47:43.158Z,35.89
2022-08-22T09:48:43.157Z,35.90
2022-08-22T09:49:43.119Z,35.88
2022-08-22T09:50:43.108Z,35.89
2022-08-22T09:51:43.097Z,35.92
2022-08-22T09:52:43.106Z,35.98
2022-08-22T09:53:43.099Z,36.04
2022-08-22T09:54:43.097Z,36.09
2022-08-22T09:55:43.059Z,36.17
2022-08-22T09:56:43.051Z,36.20
2022-08-22T09:57:43.020Z,36.24
2022-08-22T09:58:43.029Z,36.28
2022-08-22T09:59:43.009Z,36.30
2022-08-22T10:00:43.033Z,36.31
2022-08-22T10:01:43.023Z,36.35
2022-08-22T10:02:43.650Z,36.39
2022-08-22T10:03:42.960Z,36.45
2022-08-22T10:04:42.940Z,36.51
2022-08-22T10:05:44.297Z,36.52
2022-08-22T10:06:42.924Z,36.51
2022-08-22T10:07:42.925Z,36.54
2022-08-22T10:08:45.824Z,36.57
2022-08-22T10:09:42.860Z,36.64
2022-08-22T10:10:42.860Z,36.62
2022-08-22T10:11:43.298Z,36.55
2022-08-22T10:12:44.846Z,36.43
2022-08-22T10:13:42.821Z,36.37
2022-08-22T10:14:42.803Z,36.46
2022-08-22T10:15:43.800Z,36.57
2022-08-22T10:16:42.835Z,36.49
2022-08-22T10:17:42.770Z,36.36
2022-08-22T10:18:52.787Z,36.31
2022-08-22T10:19:43.741Z,36.27
2022-08-22T10:20:42.722Z,36.23
2022-08-22T10:21:42.716Z,36.23
2022-08-22T10:22:44.430Z,36.31
2022-08-22T10:23:42.790Z,36.39
2022-08-22T10:24:43.992Z,36.52
2022-08-22T10:25:42.664Z,36.61
2022-08-22T10:26:42.643Z,36.68
2022-08-22T10:27:42.652Z,36.74
2022-08-22T10:28:42.646Z,36.83
2022-08-22T10:29:42.616Z,36.93
2022-08-22T10:30:42.594Z,37.08
2022-08-22T10:31:59.051Z,37.20
2022-08-22T10:32:43.573Z,37.23
2022-08-22T10:33:42.585Z,37.35
2022-08-22T10:34:42.543Z,37.51
2022-08-22T10:35:42.544Z,37.58
2022-08-22T10:36:42.531Z,37.65
2022-08-22T10:37:46.139Z,37.75
2022-08-22T10:38:44.193Z,37.89
2022-08-22T10:39:43.973Z,38.01
2022-08-22T10:40:42.505Z,38.14
2022-08-22T10:41:42.461Z,38.23
2022-08-22T10:42:42.436Z,38.21
2022-08-22T10:43:42.445Z,38.19
2022-08-22T10:44:42.416Z,38.17
2022-08-22T10:45:42.406Z,38.24
2022-08-22T10:46:42.433Z,38.28
2022-08-22T10:47:42.381Z,38.31
2022-08-22T10:48:42.376Z,38.34
2022-08-22T10:49:42.366Z,38.39
2022-08-22T10:50:42.974Z,38.34
2022-08-22T10:51:42.327Z,38.23
2022-08-22T10:52:42.308Z,38.11
2022-08-22T10:53:42.319Z,38.05
2022-08-22T10:54:42.288Z,37.99
2022-08-22T10:55:42.278Z,37.93
2022-08-22T10:56:43.919Z,37.87
2022-08-22T10:57:42.259Z,37.83
2022-08-22T10:58:42.248Z,37.70
2022-08-22T10:59:42.229Z,37.49
2022-08-22T11:00:46.019Z,37.26
2022-08-22T11:01:42.419Z,37.02
2022-08-22T11:02:44.729Z,36.79
2022-08-22T11:03:42.180Z,36.54
2022-08-22T11:04:42.168Z,36.36
2022-08-22T11:05:42.694Z,36.20
2022-08-22T11:06:42.139Z,35.97
2022-08-22T11:07:42.139Z,35.79
2022-08-22T11:08:43.120Z,35.67
2022-08-22T11:09:42.150Z,35.37
2022-08-22T11:10:42.091Z,35.04
2022-08-22T11:11:42.081Z,34.73
2022-08-22T11:12:42.071Z,34.55
2022-08-22T11:13:42.292Z,34.47
2022-08-22T11:14:42.047Z,34.38
2022-08-22T11:15:42.041Z,34.11
2022-08-22T11:16:42.231Z,33.83
2022-08-22T11:17:46.333Z,33.57
2022-08-22T11:18:42.991Z,33.34
2022-08-22T11:19:42.983Z,33.12
2022-08-22T11:20:41.962Z,32.97
2022-08-22T11:21:41.954Z,32.85
2022-08-22T11:22:41.984Z,32.75
2022-08-22T11:23:41.922Z,32.78
2022-08-22T11:24:53.923Z,32.83
2022-08-22T11:25:42.903Z,32.90
2022-08-22T11:26:47.308Z,32.95
2022-08-22T11:27:43.010Z,32.96
2022-08-22T11:28:41.854Z,33.04
2022-08-22T11:29:43.486Z,33.07
2022-08-22T11:30:44.097Z,33.12
2022-08-22T11:31:47.210Z,33.15
2022-08-22T11:32:42.831Z,33.19
2022-08-22T11:33:46.959Z,33.22
2022-08-22T11:34:42.776Z,33.23
2022-08-22T11:35:41.776Z,33.27
2022-08-22T11:36:41.764Z,33.30
2022-08-22T11:37:42.662Z,33.30
2022-08-22T11:38:41.746Z,33.31
2022-08-22T11:39:41.747Z,33.36
2022-08-22T11:40:41.714Z,33.36
2022-08-22T11:41:41.706Z,33.32
2022-08-22T11:42:47.430Z,33.32
2022-08-22T11:43:42.803Z,33.31
2022-08-22T11:44:50.876Z,33.32
2022-08-22T11:45:42.647Z,33.31
2022-08-22T11:46:41.635Z,33.32
2022-08-22T11:47:41.617Z,33.24
2022-08-22T11:48:41.629Z,33.19
2022-08-22T11:49:42.616Z,33.15
2022-08-22T11:50:42.243Z,33.14
2022-08-22T11:51:41.566Z,33.14
2022-08-22T11:52:41.555Z,33.14
2022-08-22T11:53:41.573Z,33.05
2022-08-22T11:54:42.071Z,32.97
2022-08-22T11:55:41.527Z,32.92
2022-08-22T11:56:41.758Z,32.90
2022-08-22T11:57:41.767Z,32.90
2022-08-22T11:58:41.500Z,32.92
2022-08-22T11:59:43.204Z,32.86
2022-08-22T12:00:41.930Z,32.83
2022-08-22T12:01:41.479Z,32.85
2022-08-22T12:02:41.506Z,32.86
2022-08-22T12:03:41.431Z,32.80
2022-08-22T12:04:42.563Z,32.80
2022-08-22T12:05:41.399Z,32.82
2022-08-22T12:06:41.380Z,32.85
2022-08-22T12:07:41.370Z,32.87
2022-08-22T12:08:41.369Z,32.89
2022-08-22T12:09:41.338Z,32.73
2022-08-22T12:10:41.330Z,32.63
2022-08-22T12:11:41.312Z,32.59
2022-08-22T12:12:42.278Z,32.60
2022-08-22T12:13:41.302Z,32.63
2022-08-22T12:14:41.270Z,32.65
2022-08-22T12:15:41.266Z,32.70
2022-08-22T12:16:41.291Z,32.67
2022-08-22T12:17:50.969Z,32.60
2022-08-22T12:18:42.241Z,32.56
2022-08-22T12:19:53.665Z,32.58
2022-08-22T12:20:45.524Z,32.64
2022-08-22T12:21:41.183Z,32.68
2022-08-22T12:22:41.162Z,32.70
2022-08-22T12:23:48.652Z,32.74
2022-08-22T12:24:42.152Z,32.80
2022-08-22T12:25:44.518Z,32.85
2022-08-22T12:26:41.133Z,32.86
2022-08-22T12:27:41.112Z,32.85
2022-08-22T12:28:42.104Z,32.75
2022-08-22T12:29:45.254Z,32.64
2022-08-22T12:30:41.073Z,32.49
2022-08-22T12:31:41.075Z,32.40
2022-08-22T12:32:43.856Z,32.40
2022-08-22T12:33:41.054Z,32.43
2022-08-22T12:34:41.658Z,32.45
2022-08-22T12:35:41.024Z,32.46
2022-08-22T12:36:40.984Z,32.41
2022-08-22T12:37:52.285Z,32.34
2022-08-22T12:38:41.985Z,32.21
2022-08-22T12:39:41.283Z,32.11
2022-08-22T12:40:43.799Z,31.99
2022-08-22T12:41:40.925Z,31.87
2022-08-22T12:42:41.955Z,31.76
2022-08-22T12:43:42.744Z,31.62
2022-08-22T12:44:40.898Z,31.52
2022-08-22T12:45:40.918Z,31.43
2022-08-22T12:46:46.520Z,31.39
2022-08-22T12:47:42.276Z,31.37